createdAt,value
2019-02-19T00:00:29.757Z,0.70
2019-02-19T00:01:29.758Z,0.70
2019-02-19T00:02:29.762Z,0.70
2019-02-19T00:03:29.763Z,0.50
2019-02-19T00:04:29.767Z,0.60
2019-02-19T00:05:29.769Z,0.70
2019-02-19T00:06:29.772Z,0.70
2019-02-19T00:07:29.775Z,0.70
2019-02-19T00:08:29.778Z,0.70
2019-02-19T00:09:29.782Z,0.70
2019-02-19T00:10:29.784Z,0.60
2019-02-19T00:11:29.785Z,0.70
2019-02-19T00:12:29.789Z,0.60
2019-02-19T00:13:29.793Z,0.60
2019-02-19T00:14:29.797Z,0.50
2019-02-19T00:15:29.798Z,0.70
2019-02-19T00:16:29.805Z,0.70
2019-02-19T00:17:29.806Z,0.60
2019-02-19T00:18:29.807Z,0.70
2019-02-19T00:19:29.810Z,0.60
2019-02-19T00:20:29.814Z,0.70
2019-02-19T00:21:29.817Z,0.60
2019-02-19T00:22:29.820Z,0.60
2019-02-19T00:23:29.831Z,0.80
2019-02-19T00:24:29.830Z,0.70
2019-02-19T00:25:29.830Z,0.70
2019-02-19T00:26:29.833Z,0.70
2019-02-19T00:27:29.835Z,0.80
2019-02-19T00:28:29.837Z,0.70
2019-02-19T00:29:29.841Z,0.70
2019-02-19T00:30:29.845Z,0.70
2019-02-19T00:31:29.844Z,0.70
2019-02-19T00:32:29.849Z,0.70
2019-02-19T00:33:29.877Z,0.60
2019-02-19T00:34:29.856Z,0.70
2019-02-19T00:35:29.857Z,0.80
2019-02-19T00:36:29.860Z,0.70
2019-02-19T00:37:29.863Z,0.70
2019-02-19T00:38:29.867Z,0.70
2019-02-19T00:39:29.867Z,0.70
2019-02-19T00:40:29.927Z,0.70
2019-02-19T00:41:29.871Z,0.60
2019-02-19T00:42:29.877Z,0.60
2019-02-19T00:43:29.881Z,0.90
2019-02-19T00:44:29.886Z,0.70
2019-02-19T00:45:29.888Z,0.70
2019-02-19T00:46:29.894Z,0.60
2019-02-19T00:47:29.893Z,0.70
2019-02-19T00:48:29.897Z,0.70
2019-02-19T00:49:29.899Z,0.70
2019-02-19T00:50:29.910Z,0.60
2019-02-19T00:51:29.907Z,0.60
2019-02-19T00:52:29.918Z,0.70
2019-02-19T00:53:29.912Z,0.70
2019-02-19T00:54:29.914Z,0.60
2019-02-19T00:55:29.916Z,0.70
2019-02-19T00:56:29.922Z,0.80
2019-02-19T00:57:29.923Z,0.70
2019-02-19T00:58:29.925Z,0.70
2019-02-19T00:59:29.928Z,0.60
2019-02-19T01:00:29.932Z,0.50
2019-02-19T01:01:29.935Z,0.70
2019-02-19T01:02:29.938Z,0.70
2019-02-19T01:03:29.940Z,0.70
2019-02-19T01:04:29.943Z,0.60
2019-02-19T01:05:29.995Z,0.60
2019-02-19T01:06:29.952Z,0.80
2019-02-19T01:07:29.954Z,0.70
2019-02-19T01:08:29.956Z,0.70
2019-02-19T01:09:29.958Z,0.80
2019-02-19T01:10:29.962Z,0.70
2019-02-19T01:11:29.969Z,0.60
2019-02-19T01:12:29.971Z,0.70
2019-02-19T01:13:29.970Z,0.70
2019-02-19T01:14:29.974Z,0.60
2019-02-19T01:15:29.974Z,0.70
2019-02-19T01:16:29.979Z,0.70
2019-02-19T01:17:29.980Z,0.70
2019-02-19T01:18:29.987Z,0.70
2019-02-19T01:19:29.987Z,0.70
2019-02-19T01:20:29.993Z,0.60
2019-02-19T01:21:29.994Z,0.70
2019-02-19T01:22:29.997Z,0.70
2019-02-19T01:23:30.000Z,0.70
2019-02-19T01:24:30.002Z,0.70
2019-02-19T01:25:30.009Z,0.80
2019-02-19T01:26:30.010Z,0.60
2019-02-19T01:27:30.012Z,0.60
2019-02-19T01:28:30.015Z,0.70
2019-02-19T01:29:30.017Z,0.70
2019-02-19T01:30:30.021Z,0.60
2019-02-19T01:31:30.021Z,0.60
2019-02-19T01:32:30.026Z,0.60
2019-02-19T01:33:30.029Z,0.60
2019-02-19T01:34:30.032Z,0.70
2019-02-19T01:35:30.036Z,0.60
2019-02-19T01:36:30.041Z,0.60
2019-02-19T01:37:30.041Z,0.70
2019-02-19T01:38:30.044Z,0.60
2019-02-19T01:39:30.047Z,0.70
2019-02-19T01:40:30.053Z,0.70
2019-02-19T01:41:30.054Z,0.70
2019-02-19T01:42:30.057Z,0.60
2019-02-19T01:43:30.059Z,0.70
2019-02-19T01:44:30.062Z,0.70
2019-02-19T01:45:34.084Z,0.60
2019-02-19T01:46:30.069Z,0.70
2019-02-19T01:47:30.071Z,0.50
2019-02-19T01:48:30.074Z,0.60
2019-02-19T01:49:30.077Z,0.70
2019-02-19T01:50:30.080Z,0.60
2019-02-19T01:51:30.090Z,0.50
2019-02-19T01:52:30.085Z,0.60
2019-02-19T01:53:30.089Z,0.50
2019-02-19T01:54:30.093Z,0.70
2019-02-19T01:55:30.093Z,0.70
2019-02-19T01:56:30.099Z,0.60
2019-02-19T01:57:30.101Z,0.60
2019-02-19T01:58:30.103Z,0.60
2019-02-19T01:59:30.106Z,0.60
2019-02-19T02:00:30.114Z,0.60
2019-02-19T02:01:30.112Z,0.60
2019-02-19T02:02:30.116Z,0.70
2019-02-19T02:03:30.119Z,0.70
2019-02-19T02:04:30.124Z,0.70
2019-02-19T02:05:30.124Z,0.70
2019-02-19T02:06:30.128Z,0.60
2019-02-19T02:07:30.129Z,0.70
2019-02-19T02:08:30.133Z,0.50
2019-02-19T02:09:30.137Z,0.70
2019-02-19T02:10:30.139Z,0.70
2019-02-19T02:11:30.142Z,0.60
2019-02-19T02:12:30.145Z,0.70
2019-02-19T02:13:30.148Z,0.60
2019-02-19T02:14:30.151Z,0.70
2019-02-19T02:15:30.154Z,0.60
2019-02-19T02:16:30.156Z,0.60
2019-02-19T02:17:30.160Z,0.60
2019-02-19T02:18:30.168Z,0.70
2019-02-19T02:19:30.165Z,0.60
2019-02-19T02:20:30.168Z,0.70
2019-02-19T02:21:30.171Z,0.70
2019-02-19T02:22:30.175Z,0.50
2019-02-19T02:23:30.177Z,0.60
2019-02-19T02:24:30.182Z,0.60
2019-02-19T02:25:30.184Z,0.60
2019-02-19T02:26:30.185Z,0.60
2019-02-19T02:27:30.189Z,0.70
2019-02-19T02:28:30.192Z,0.60
2019-02-19T02:29:30.235Z,0.60
2019-02-19T02:30:30.208Z,0.50
2019-02-19T02:31:30.200Z,0.50
2019-02-19T02:32:30.212Z,0.60
2019-02-19T02:33:30.208Z,0.60
2019-02-19T02:34:30.212Z,0.60
2019-02-19T02:35:30.213Z,0.60
2019-02-19T02:36:30.217Z,0.60
2019-02-19T02:37:30.220Z,0.70
2019-02-19T02:38:30.227Z,0.60
2019-02-19T02:39:30.226Z,0.60
2019-02-19T02:40:30.231Z,0.60
2019-02-19T02:41:30.232Z,0.60
2019-02-19T02:42:30.235Z,0.60
2019-02-19T02:43:30.237Z,0.60
2019-02-19T02:44:30.279Z,0.50
2019-02-19T02:45:30.242Z,0.50
2019-02-19T02:46:30.294Z,0.60
2019-02-19T02:47:30.248Z,0.50
2019-02-19T02:48:30.254Z,0.60
2019-02-19T02:49:30.255Z,0.60
2019-02-19T02:50:30.260Z,0.70
2019-02-19T02:51:30.264Z,0.60
2019-02-19T02:52:30.269Z,0.60
2019-02-19T02:53:30.268Z,0.60
2019-02-19T02:54:30.270Z,0.50
2019-02-19T02:55:30.272Z,0.60
2019-02-19T02:56:30.276Z,0.70
2019-02-19T02:57:30.279Z,0.50
2019-02-19T02:58:30.282Z,0.60
2019-02-19T02:59:30.284Z,0.60
2019-02-19T03:00:30.289Z,0.60
2019-02-19T03:01:30.291Z,0.60
2019-02-19T03:02:30.293Z,0.50
2019-02-19T03:03:30.296Z,0.70
2019-02-19T03:04:30.297Z,0.60
2019-02-19T03:05:30.304Z,0.60
2019-02-19T03:06:30.307Z,0.60
2019-02-19T03:07:30.307Z,0.70
2019-02-19T03:08:30.314Z,0.70
2019-02-19T03:09:30.316Z,0.60
2019-02-19T03:10:30.321Z,0.50
2019-02-19T03:11:30.320Z,0.60
2019-02-19T03:12:30.323Z,0.70
2019-02-19T03:13:30.329Z,0.50
2019-02-19T03:14:30.329Z,0.70
2019-02-19T03:15:30.354Z,0.70
2019-02-19T03:16:30.334Z,0.60
2019-02-19T03:17:30.338Z,0.50
2019-02-19T03:18:30.343Z,0.70
2019-02-19T03:19:30.344Z,0.60
2019-02-19T03:20:30.347Z,0.70
2019-02-19T03:21:30.349Z,0.60
2019-02-19T03:22:30.352Z,0.60
2019-02-19T03:23:30.352Z,0.60
2019-02-19T03:24:30.361Z,0.60
2019-02-19T03:25:30.360Z,0.60
2019-02-19T03:26:30.364Z,0.70
2019-02-19T03:27:30.366Z,0.60
2019-02-19T03:28:30.369Z,0.60
2019-02-19T03:29:30.373Z,0.50
2019-02-19T03:30:30.379Z,0.50
2019-02-19T03:31:30.384Z,0.70
2019-02-19T03:32:30.381Z,0.60
2019-02-19T03:33:30.386Z,0.60
2019-02-19T03:34:30.389Z,0.60
2019-02-19T03:35:30.390Z,0.70
2019-02-19T03:36:30.394Z,0.60
2019-02-19T03:37:30.404Z,0.60
2019-02-19T03:38:30.403Z,0.70
2019-02-19T03:39:30.409Z,0.60
2019-02-19T03:40:30.411Z,0.70
2019-02-19T03:41:30.414Z,0.60
2019-02-19T03:42:30.414Z,0.60
2019-02-19T03:43:30.415Z,0.50
2019-02-19T03:44:30.418Z,0.60
2019-02-19T03:45:30.421Z,0.50
2019-02-19T03:46:30.572Z,0.60
2019-02-19T03:47:30.428Z,0.60
2019-02-19T03:48:30.431Z,0.70
2019-02-19T03:49:30.432Z,0.40
2019-02-19T03:50:30.436Z,0.70
2019-02-19T03:51:30.439Z,0.60
2019-02-19T03:52:30.441Z,0.50
2019-02-19T03:53:30.449Z,0.60
2019-02-19T03:54:30.451Z,0.50
2019-02-19T03:55:30.450Z,0.60
2019-02-19T03:56:30.452Z,0.60
2019-02-19T03:57:30.457Z,0.60
2019-02-19T03:58:30.460Z,0.60
2019-02-19T03:59:30.461Z,0.50
2019-02-19T04:00:30.466Z,0.50
2019-02-19T04:01:30.475Z,0.70
2019-02-19T04:02:30.474Z,0.50
2019-02-19T04:03:30.474Z,0.50
2019-02-19T04:04:30.481Z,0.50
2019-02-19T04:05:30.483Z,0.60
2019-02-19T04:06:32.375Z,0.50
2019-02-19T04:07:30.486Z,0.50
2019-02-19T04:08:30.488Z,0.60
2019-02-19T04:09:30.491Z,0.60
2019-02-19T04:10:30.492Z,0.60
2019-02-19T04:11:30.496Z,0.60
2019-02-19T04:12:30.501Z,0.60
2019-02-19T04:13:30.503Z,0.50
2019-02-19T04:14:30.509Z,0.50
2019-02-19T04:15:30.513Z,0.50
2019-02-19T04:16:30.512Z,0.50
2019-02-19T04:17:30.516Z,0.50
2019-02-19T04:18:30.519Z,0.60
2019-02-19T04:19:30.527Z,0.50
2019-02-19T04:20:30.529Z,0.50
2019-02-19T04:21:30.529Z,0.60
2019-02-19T04:22:30.531Z,0.50
2019-02-19T04:23:30.534Z,0.60
2019-02-19T04:24:30.535Z,0.50
2019-02-19T04:25:30.540Z,0.60
2019-02-19T04:26:30.542Z,0.60
2019-02-19T04:27:30.545Z,0.50
2019-02-19T04:28:30.548Z,0.50
2019-02-19T04:29:30.560Z,0.60
2019-02-19T04:30:30.555Z,0.50
2019-02-19T04:31:31.852Z,0.60
2019-02-19T04:32:30.563Z,0.50
2019-02-19T04:33:30.562Z,0.60
2019-02-19T04:34:30.566Z,0.60
2019-02-19T04:35:30.570Z,0.60
2019-02-19T04:36:30.572Z,0.60
2019-02-19T04:37:30.576Z,0.70
2019-02-19T04:38:30.577Z,0.60
2019-02-19T04:39:30.580Z,0.70
2019-02-19T04:40:30.583Z,0.60
2019-02-19T04:41:30.591Z,0.50
2019-02-19T04:42:30.591Z,0.60
2019-02-19T04:43:30.591Z,0.50
2019-02-19T04:44:30.599Z,0.50
2019-02-19T04:45:30.601Z,0.60
2019-02-19T04:46:31.742Z,0.60
2019-02-19T04:47:30.605Z,0.60
2019-02-19T04:48:30.606Z,0.60
2019-02-19T04:49:30.610Z,0.50
2019-02-19T04:50:30.616Z,0.50
2019-02-19T04:51:30.620Z,0.50
2019-02-19T04:52:30.619Z,0.60
2019-02-19T04:53:30.628Z,0.50
2019-02-19T04:54:30.625Z,0.50
2019-02-19T04:55:30.632Z,0.60
2019-02-19T04:56:30.630Z,0.60
2019-02-19T04:57:30.638Z,0.50
2019-02-19T04:58:30.636Z,0.60
2019-02-19T04:59:30.638Z,0.50
2019-02-19T05:00:30.649Z,0.50
2019-02-19T05:01:30.645Z,0.60
2019-02-19T05:02:30.649Z,0.60
2019-02-19T05:03:30.651Z,0.60
2019-02-19T05:04:30.654Z,0.60
2019-02-19T05:05:30.657Z,0.60
2019-02-19T05:06:30.661Z,0.50
2019-02-19T05:07:30.662Z,0.50
2019-02-19T05:08:30.668Z,0.50
2019-02-19T05:09:30.670Z,0.60
2019-02-19T05:10:30.672Z,0.50
2019-02-19T05:11:30.723Z,0.60
2019-02-19T05:12:30.680Z,0.40
2019-02-19T05:13:30.684Z,0.60
2019-02-19T05:14:30.687Z,0.60
2019-02-19T05:15:30.687Z,0.50
2019-02-19T05:16:30.690Z,0.70
2019-02-19T05:17:30.696Z,0.50
2019-02-19T05:18:30.696Z,0.60
2019-02-19T05:19:30.703Z,0.70
2019-02-19T05:20:30.703Z,0.60
2019-02-19T05:21:30.704Z,0.60
2019-02-19T05:22:30.708Z,0.70
2019-02-19T05:23:30.711Z,0.70
2019-02-19T05:24:30.714Z,0.60
2019-02-19T05:25:30.718Z,0.60
2019-02-19T05:26:30.726Z,0.70
2019-02-19T05:27:30.733Z,0.70
2019-02-19T05:28:30.729Z,0.60
2019-02-19T05:29:30.731Z,0.60
2019-02-19T05:30:30.735Z,0.60
2019-02-19T05:31:30.733Z,0.70
2019-02-19T05:32:30.738Z,0.60
2019-02-19T05:33:30.740Z,0.50
2019-02-19T05:34:30.744Z,0.70
2019-02-19T05:35:30.745Z,0.70
2019-02-19T05:36:30.749Z,0.50
2019-02-19T05:37:30.762Z,0.60
2019-02-19T05:38:30.760Z,0.60
2019-02-19T05:39:30.758Z,0.60
2019-02-19T05:40:30.761Z,0.70
2019-02-19T05:41:30.764Z,0.70
2019-02-19T05:42:30.770Z,0.70
2019-02-19T05:43:30.789Z,0.60
2019-02-19T05:44:30.787Z,0.70
2019-02-19T05:45:30.776Z,0.70
2019-02-19T05:46:30.780Z,0.60
2019-02-19T05:47:30.782Z,0.60
2019-02-19T05:48:30.791Z,0.50
2019-02-19T05:49:30.792Z,0.70
2019-02-19T05:50:30.790Z,0.50
2019-02-19T05:51:30.796Z,0.70
2019-02-19T05:52:30.797Z,0.60
2019-02-19T05:53:30.808Z,0.70
2019-02-19T05:54:30.808Z,0.70
2019-02-19T05:55:30.812Z,0.90
2019-02-19T05:56:30.811Z,0.70
2019-02-19T05:57:30.813Z,0.80
2019-02-19T05:58:30.819Z,0.70
2019-02-19T05:59:32.501Z,0.80
2019-02-19T06:00:30.821Z,0.70
2019-02-19T06:01:30.826Z,0.70
2019-02-19T06:02:30.828Z,0.60
2019-02-19T06:03:30.830Z,0.70
2019-02-19T06:04:30.833Z,0.70
2019-02-19T06:05:30.841Z,0.80
2019-02-19T06:06:30.838Z,0.80
2019-02-19T06:07:30.842Z,0.80
2019-02-19T06:08:30.846Z,0.80
2019-02-19T06:09:30.849Z,0.80
2019-02-19T06:10:30.854Z,0.70
2019-02-19T06:11:30.856Z,0.80
2019-02-19T06:12:30.860Z,0.70
2019-02-19T06:13:30.862Z,0.80
2019-02-19T06:14:30.872Z,0.70
2019-02-19T06:15:30.867Z,0.90
2019-02-19T06:16:30.872Z,0.80
2019-02-19T06:17:30.876Z,1.00
2019-02-19T06:18:30.888Z,1.00
2019-02-19T06:19:30.883Z,1.10
2019-02-19T06:20:30.883Z,1.10
2019-02-19T06:21:30.886Z,1.00
2019-02-19T06:22:30.891Z,1.10
2019-02-19T06:23:30.891Z,1.10
2019-02-19T06:24:30.898Z,1.40
2019-02-19T06:25:30.902Z,1.10
2019-02-19T06:26:30.903Z,1.10
2019-02-19T06:27:30.905Z,1.10
2019-02-19T06:28:30.918Z,1.00
2019-02-19T06:29:30.914Z,1.20
2019-02-19T06:30:30.916Z,1.20
2019-02-19T06:31:30.918Z,1.10
2019-02-19T06:32:30.922Z,1.00
2019-02-19T06:33:30.928Z,1.40
2019-02-19T06:34:30.927Z,1.30
2019-02-19T06:35:30.941Z,1.10
2019-02-19T06:36:30.943Z,1.20
2019-02-19T06:37:30.943Z,1.50
2019-02-19T06:38:30.940Z,1.20
2019-02-19T06:39:30.943Z,1.10
2019-02-19T06:40:30.946Z,1.00
2019-02-19T06:41:30.949Z,1.20
2019-02-19T06:42:30.961Z,1.10
2019-02-19T06:43:30.956Z,1.10
2019-02-19T06:44:30.970Z,1.10
2019-02-19T06:45:30.966Z,1.10
2019-02-19T06:46:30.976Z,1.10
2019-02-19T06:47:30.967Z,1.30
2019-02-19T06:48:30.987Z,1.10
2019-02-19T06:49:30.981Z,1.00
2019-02-19T06:50:30.981Z,1.20
2019-02-19T06:51:30.984Z,1.00
2019-02-19T06:52:30.984Z,1.20
2019-02-19T06:53:30.990Z,1.10
2019-02-19T06:54:31.002Z,1.10
2019-02-19T06:55:30.993Z,1.00
2019-02-19T06:56:30.997Z,0.80
2019-02-19T06:57:31.007Z,1.10
2019-02-19T06:58:31.008Z,0.80
2019-02-19T06:59:31.008Z,0.90
2019-02-19T07:00:31.012Z,0.80
2019-02-19T07:01:31.013Z,1.00
2019-02-19T07:02:31.017Z,0.80
2019-02-19T07:03:31.030Z,0.90
2019-02-19T07:04:31.024Z,0.70
2019-02-19T07:05:31.033Z,0.90
2019-02-19T07:06:31.035Z,0.90
2019-02-19T07:07:31.047Z,0.80
2019-02-19T07:08:31.035Z,0.80
2019-02-19T07:09:31.047Z,0.90
2019-02-19T07:10:31.045Z,1.10
2019-02-19T07:11:31.044Z,0.90
2019-02-19T07:12:31.048Z,0.90
2019-02-19T07:13:31.052Z,1.00
2019-02-19T07:14:31.057Z,1.10
2019-02-19T07:15:31.108Z,1.00
2019-02-19T07:16:31.064Z,1.00
2019-02-19T07:17:31.069Z,1.00
2019-02-19T07:18:31.069Z,0.90
2019-02-19T07:19:31.070Z,1.00
2019-02-19T07:20:31.074Z,0.90
2019-02-19T07:21:31.078Z,0.90
2019-02-19T07:22:31.084Z,0.80
2019-02-19T07:23:31.084Z,0.80
2019-02-19T07:24:31.088Z,0.70
2019-02-19T07:25:31.092Z,0.90
2019-02-19T07:26:31.095Z,0.70
2019-02-19T07:27:31.097Z,0.90
2019-02-19T07:28:31.100Z,1.00
2019-02-19T07:29:31.102Z,0.80
2019-02-19T07:30:31.107Z,0.80
2019-02-19T07:31:31.110Z,0.80
2019-02-19T07:32:31.117Z,0.60
2019-02-19T07:33:31.115Z,0.70
2019-02-19T07:34:31.122Z,0.70
2019-02-19T07:35:31.121Z,0.90
2019-02-19T07:36:31.126Z,0.80
2019-02-19T07:37:31.130Z,0.80
2019-02-19T07:38:31.133Z,0.80
2019-02-19T07:39:31.137Z,0.90
2019-02-19T07:40:31.143Z,0.70
2019-02-19T07:41:31.142Z,0.80
2019-02-19T07:42:31.146Z,0.70
2019-02-19T07:43:31.149Z,0.80
2019-02-19T07:44:31.154Z,0.80
2019-02-19T07:45:31.158Z,0.60
2019-02-19T07:46:31.161Z,0.70
2019-02-19T07:47:31.161Z,0.60
2019-02-19T07:48:31.166Z,0.70
2019-02-19T07:49:31.174Z,0.80
2019-02-19T07:50:31.170Z,0.70
2019-02-19T07:51:31.180Z,0.60
2019-02-19T07:52:31.178Z,0.80
2019-02-19T07:53:31.182Z,0.90
2019-02-19T07:54:31.197Z,0.70
2019-02-19T07:55:32.962Z,0.80
2019-02-19T07:56:31.190Z,0.90
2019-02-19T07:57:31.194Z,0.80
2019-02-19T07:58:31.201Z,0.90
2019-02-19T07:59:31.206Z,0.90
2019-02-19T08:00:31.214Z,0.70
2019-02-19T08:01:31.208Z,0.90
2019-02-19T08:02:31.211Z,0.80
2019-02-19T08:03:31.236Z,1.00
2019-02-19T08:04:31.218Z,0.80
2019-02-19T08:05:31.220Z,0.90
2019-02-19T08:06:31.238Z,0.80
2019-02-19T08:07:31.242Z,0.90
2019-02-19T08:08:31.235Z,0.90
2019-02-19T08:09:31.241Z,0.90
2019-02-19T08:10:31.243Z,0.90
2019-02-19T08:11:31.240Z,0.90
2019-02-19T08:12:31.244Z,0.90
2019-02-19T08:13:31.249Z,1.00
2019-02-19T08:14:31.257Z,0.80
2019-02-19T08:15:31.253Z,0.90
2019-02-19T08:16:31.257Z,0.80
2019-02-19T08:17:33.399Z,0.90
2019-02-19T08:18:31.267Z,0.80
2019-02-19T08:19:31.268Z,0.90
2019-02-19T08:20:31.283Z,0.90
2019-02-19T08:21:31.278Z,1.00
2019-02-19T08:22:31.281Z,1.00
2019-02-19T08:23:31.280Z,1.00
2019-02-19T08:24:31.284Z,0.90
2019-02-19T08:25:31.290Z,0.90
2019-02-19T08:26:31.292Z,1.10
2019-02-19T08:27:31.293Z,1.10
2019-02-19T08:28:31.296Z,1.00
2019-02-19T08:29:31.307Z,1.20
2019-02-19T08:30:31.306Z,1.30
2019-02-19T08:31:31.305Z,1.20
2019-02-19T08:32:31.309Z,0.90
2019-02-19T08:33:31.314Z,1.30
2019-02-19T08:34:31.327Z,1.20
2019-02-19T08:35:31.325Z,1.00
2019-02-19T08:36:31.375Z,0.90
2019-02-19T08:37:31.329Z,1.00
2019-02-19T08:38:31.332Z,1.00
2019-02-19T08:39:31.331Z,0.90
2019-02-19T08:40:31.337Z,1.20
2019-02-19T08:41:31.345Z,1.00
2019-02-19T08:42:31.347Z,0.80
2019-02-19T08:43:31.346Z,1.10
2019-02-19T08:44:31.353Z,1.10
2019-02-19T08:45:31.357Z,1.00
2019-02-19T08:46:31.359Z,1.00
2019-02-19T08:47:31.361Z,1.20
2019-02-19T08:48:31.365Z,1.00
2019-02-19T08:49:31.369Z,1.00
2019-02-19T08:50:31.373Z,1.00
2019-02-19T08:51:31.371Z,0.90
2019-02-19T08:52:31.378Z,0.80
2019-02-19T08:53:31.384Z,0.90
2019-02-19T08:54:31.385Z,0.90
2019-02-19T08:55:31.387Z,0.80
2019-02-19T08:56:31.392Z,0.70
2019-02-19T08:57:31.447Z,0.90
2019-02-19T08:58:31.398Z,0.90
2019-02-19T08:59:31.402Z,0.90
2019-02-19T09:00:31.406Z,0.90
2019-02-19T09:01:31.406Z,0.80
2019-02-19T09:02:31.411Z,0.80
2019-02-19T09:03:31.416Z,0.90
2019-02-19T09:04:31.469Z,0.90
2019-02-19T09:05:31.423Z,0.90
2019-02-19T09:06:31.426Z,0.90
2019-02-19T09:07:31.428Z,0.60
2019-02-19T09:08:31.436Z,1.20
2019-02-19T09:09:31.465Z,0.80
2019-02-19T09:10:31.438Z,0.80
2019-02-19T09:11:31.442Z,0.80
2019-02-19T09:12:31.450Z,1.00
2019-02-19T09:13:31.449Z,0.90
2019-02-19T09:14:31.465Z,1.00
2019-02-19T09:15:31.459Z,0.80
2019-02-19T09:16:31.456Z,0.80
2019-02-19T09:17:31.464Z,0.80
2019-02-19T09:18:31.466Z,0.80
2019-02-19T09:19:31.520Z,1.00
2019-02-19T09:20:31.472Z,1.00
2019-02-19T09:21:31.485Z,0.70
2019-02-19T09:22:31.477Z,0.90
2019-02-19T09:23:31.489Z,0.70
2019-02-19T09:24:31.493Z,0.90
2019-02-19T09:25:31.494Z,1.10
2019-02-19T09:26:31.497Z,0.80
2019-02-19T09:27:31.495Z,0.80
2019-02-19T09:28:31.500Z,0.80
2019-02-19T09:29:31.505Z,0.80
2019-02-19T09:30:31.507Z,0.70
2019-02-19T09:31:31.510Z,0.60
2019-02-19T09:32:31.521Z,0.60
2019-02-19T09:33:31.516Z,0.60
2019-02-19T09:34:31.521Z,0.70
2019-02-19T09:35:31.523Z,0.80
2019-02-19T09:36:31.524Z,0.70
2019-02-19T09:37:31.529Z,0.70
2019-02-19T09:38:31.535Z,0.50
2019-02-19T09:39:31.544Z,0.70
2019-02-19T09:40:33.464Z,0.60
2019-02-19T09:41:31.546Z,0.70
2019-02-19T09:42:31.554Z,1.00
2019-02-19T09:43:35.471Z,0.80
2019-02-19T09:44:31.554Z,0.60
2019-02-19T09:45:31.561Z,0.70
2019-02-19T09:46:31.564Z,0.70
2019-02-19T09:47:31.565Z,0.70
2019-02-19T09:48:31.569Z,0.90
2019-02-19T09:49:31.578Z,0.70
2019-02-19T09:50:31.579Z,0.80
2019-02-19T09:51:31.582Z,0.70
2019-02-19T09:52:31.587Z,0.70
2019-02-19T09:53:31.644Z,0.90
2019-02-19T09:54:31.593Z,0.80
2019-02-19T09:55:31.595Z,0.80
2019-02-19T09:56:31.632Z,0.80
2019-02-19T09:57:32.733Z,0.70
2019-02-19T09:58:31.609Z,1.10
2019-02-19T09:59:31.660Z,1.20
2019-02-19T10:00:31.613Z,0.90
2019-02-19T10:01:31.615Z,0.80
2019-02-19T10:02:31.621Z,0.60
2019-02-19T10:03:31.621Z,0.80
2019-02-19T10:04:31.629Z,0.90
2019-02-19T10:05:31.626Z,0.80
2019-02-19T10:06:31.633Z,0.90
2019-02-19T10:07:31.636Z,0.80
2019-02-19T10:08:31.643Z,0.70
2019-02-19T10:09:31.645Z,0.70
2019-02-19T10:10:31.689Z,0.90
2019-02-19T10:11:31.650Z,0.70
2019-02-19T10:12:31.657Z,0.70
2019-02-19T10:13:31.659Z,0.80
2019-02-19T10:14:31.661Z,0.80
2019-02-19T10:15:31.711Z,0.80
2019-02-19T10:16:31.666Z,0.80
2019-02-19T10:17:31.672Z,0.80
2019-02-19T10:18:31.681Z,0.90
2019-02-19T10:19:31.686Z,0.70
2019-02-19T10:20:31.684Z,0.70
2019-02-19T10:21:31.694Z,0.80
2019-02-19T10:22:31.696Z,0.70
2019-02-19T10:23:31.744Z,0.70
2019-02-19T10:24:31.696Z,0.70
2019-02-19T10:25:31.700Z,0.70
2019-02-19T10:26:31.720Z,0.80
2019-02-19T10:27:31.709Z,0.70
2019-02-19T10:28:31.710Z,0.70
2019-02-19T10:29:31.716Z,0.90
2019-02-19T10:30:31.718Z,1.10
2019-02-19T10:31:31.719Z,0.90
2019-02-19T10:32:31.725Z,0.70
2019-02-19T10:33:31.729Z,0.80
2019-02-19T10:34:31.732Z,0.70
2019-02-19T10:35:31.736Z,0.80
2019-02-19T10:36:31.741Z,0.80
2019-02-19T10:37:31.741Z,0.70
2019-02-19T10:38:31.750Z,0.70
2019-02-19T10:39:31.803Z,0.70
2019-02-19T10:40:31.763Z,0.70
2019-02-19T10:41:31.766Z,0.70
2019-02-19T10:42:31.766Z,0.70
2019-02-19T10:43:31.763Z,0.60
2019-02-19T10:44:31.767Z,0.90
2019-02-19T10:45:31.786Z,0.80
2019-02-19T10:46:31.776Z,0.80
2019-02-19T10:47:31.782Z,0.70
2019-02-19T10:48:31.783Z,0.80
2019-02-19T10:49:31.835Z,0.70
2019-02-19T10:50:31.789Z,0.90
2019-02-19T10:51:31.793Z,0.80
2019-02-19T10:52:31.797Z,0.80
2019-02-19T10:53:31.803Z,0.70
2019-02-19T10:54:31.804Z,0.60
2019-02-19T10:55:31.805Z,0.70
2019-02-19T10:56:31.811Z,0.80
2019-02-19T10:57:31.817Z,0.70
2019-02-19T10:58:31.819Z,0.80
2019-02-19T10:59:31.821Z,0.90
2019-02-19T11:00:31.825Z,0.80
2019-02-19T11:01:31.830Z,0.80
2019-02-19T11:02:31.834Z,0.80
2019-02-19T11:03:31.835Z,0.60
2019-02-19T11:04:31.840Z,0.70
2019-02-19T11:05:31.848Z,0.70
2019-02-19T11:06:31.846Z,0.60
2019-02-19T11:07:31.852Z,0.80
2019-02-19T11:08:31.853Z,0.90
2019-02-19T11:09:31.861Z,0.80
2019-02-19T11:10:31.862Z,0.70
2019-02-19T11:11:31.864Z,0.80
2019-02-19T11:12:31.870Z,0.70
2019-02-19T11:13:31.872Z,0.90
2019-02-19T11:14:31.876Z,0.90
2019-02-19T11:15:31.881Z,0.90
2019-02-19T11:16:31.886Z,1.00
2019-02-19T11:17:31.887Z,0.80
2019-02-19T11:18:31.892Z,1.00
2019-02-19T11:19:31.894Z,0.80
2019-02-19T11:20:31.903Z,0.80
2019-02-19T11:21:31.903Z,0.80
2019-02-19T11:22:31.907Z,0.90
2019-02-19T11:23:33.680Z,1.00
2019-02-19T11:24:31.912Z,0.90
2019-02-19T11:25:31.918Z,1.00
2019-02-19T11:26:31.919Z,0.80
2019-02-19T11:27:31.923Z,0.80
2019-02-19T11:28:31.927Z,0.70
2019-02-19T11:29:31.930Z,0.90
2019-02-19T11:30:31.936Z,0.90
2019-02-19T11:31:31.938Z,0.80
2019-02-19T11:32:31.941Z,0.80
2019-02-19T11:33:31.946Z,0.70
2019-02-19T11:34:31.950Z,0.70
2019-02-19T11:35:31.952Z,0.80
2019-02-19T11:36:31.954Z,0.80
2019-02-19T11:37:31.958Z,0.80
2019-02-19T11:38:31.963Z,0.90
2019-02-19T11:39:31.968Z,0.60
2019-02-19T11:40:31.970Z,0.60
2019-02-19T11:41:31.975Z,0.80
2019-02-19T11:42:31.975Z,0.80
2019-02-19T11:43:33.198Z,1.00
2019-02-19T11:44:31.984Z,0.80
2019-02-19T11:45:31.988Z,1.30
2019-02-19T11:46:31.991Z,0.90
2019-02-19T11:47:31.999Z,0.80
2019-02-19T11:48:37.033Z,0.80
2019-02-19T11:49:32.003Z,0.80
2019-02-19T11:50:32.007Z,0.80
2019-02-19T11:51:32.010Z,0.80
2019-02-19T11:52:32.014Z,0.80
2019-02-19T11:53:32.017Z,0.70
2019-02-19T11:54:32.020Z,0.80
2019-02-19T11:55:32.025Z,0.80
2019-02-19T11:56:32.041Z,0.90
2019-02-19T11:57:32.034Z,0.80
2019-02-19T11:58:32.036Z,0.70
2019-02-19T11:59:32.038Z,0.80
2019-02-19T12:00:32.043Z,0.70
2019-02-19T12:01:32.049Z,0.90
2019-02-19T12:02:33.123Z,0.80
2019-02-19T12:03:32.057Z,0.80
2019-02-19T12:04:32.108Z,0.80
2019-02-19T12:05:32.062Z,0.70
2019-02-19T12:06:32.066Z,0.70
2019-02-19T12:07:32.069Z,0.60
2019-02-19T12:08:38.824Z,0.60
2019-02-19T12:09:32.077Z,0.80
2019-02-19T12:10:32.082Z,0.80
2019-02-19T12:11:32.084Z,0.80
2019-02-19T12:12:32.087Z,0.70
2019-02-19T12:13:32.092Z,0.70
2019-02-19T12:14:32.095Z,0.80
2019-02-19T12:15:35.119Z,0.70
2019-02-19T12:16:32.101Z,0.70
2019-02-19T12:17:32.106Z,0.80
2019-02-19T12:18:32.110Z,0.70
2019-02-19T12:19:32.114Z,0.60
2019-02-19T12:20:32.117Z,0.70
2019-02-19T12:21:32.120Z,0.80
2019-02-19T12:22:32.129Z,0.70
2019-02-19T12:23:32.144Z,0.70
2019-02-19T12:24:32.234Z,0.70
2019-02-19T12:25:32.135Z,0.70
2019-02-19T12:26:32.140Z,0.60
2019-02-19T12:27:32.140Z,0.60
2019-02-19T12:28:32.148Z,0.80
2019-02-19T12:29:32.149Z,0.70
2019-02-19T12:30:32.155Z,0.80
2019-02-19T12:31:32.155Z,0.70
2019-02-19T12:32:32.161Z,0.70
2019-02-19T12:33:32.164Z,0.60
2019-02-19T12:34:32.177Z,0.70
2019-02-19T12:35:32.173Z,0.70
2019-02-19T12:36:32.176Z,0.80
2019-02-19T12:37:32.177Z,0.50
2019-02-19T12:38:32.190Z,0.60
2019-02-19T12:39:32.190Z,0.70
2019-02-19T12:40:32.190Z,0.70
2019-02-19T12:41:32.195Z,0.60
2019-02-19T12:42:32.196Z,0.70
2019-02-19T12:43:32.211Z,0.70
2019-02-19T12:44:32.208Z,0.70
2019-02-19T12:45:32.208Z,0.70
2019-02-19T12:46:32.210Z,0.70
2019-02-19T12:47:32.210Z,0.70
2019-02-19T12:48:32.217Z,0.70
2019-02-19T12:49:32.221Z,0.70
2019-02-19T12:50:32.222Z,0.70
2019-02-19T12:51:32.226Z,0.70
2019-02-19T12:52:32.229Z,0.60
2019-02-19T12:53:32.235Z,0.70
2019-02-19T12:54:32.238Z,0.70
2019-02-19T12:55:32.242Z,0.60
2019-02-19T12:56:32.245Z,0.70
2019-02-19T12:57:32.249Z,0.80
2019-02-19T12:58:32.255Z,0.70
2019-02-19T12:59:32.254Z,0.70
2019-02-19T13:00:32.262Z,0.70
2019-02-19T13:01:32.263Z,0.80
2019-02-19T13:02:32.266Z,0.90
2019-02-19T13:03:32.270Z,0.70
2019-02-19T13:04:32.272Z,0.90
2019-02-19T13:05:32.278Z,0.80
2019-02-19T13:06:32.282Z,0.60
2019-02-19T13:07:32.286Z,0.70
2019-02-19T13:08:32.285Z,0.70
2019-02-19T13:09:32.289Z,0.80
2019-02-19T13:10:32.295Z,0.80
2019-02-19T13:11:32.293Z,0.60
2019-02-19T13:12:32.305Z,0.70
2019-02-19T13:13:32.302Z,0.80
2019-02-19T13:14:32.306Z,0.60
2019-02-19T13:15:32.311Z,0.60
2019-02-19T13:16:32.312Z,0.60
2019-02-19T13:17:32.317Z,0.70
2019-02-19T13:18:32.316Z,0.70